createdAt,value
2019-05-30T00:00:37.889Z,100581.91
2019-05-30T00:03:58.829Z,100582.34
2019-05-30T00:06:00.532Z,100586.22
2019-05-30T00:08:35.782Z,100582.92
2019-05-30T00:11:06.915Z,100586.22
2019-05-30T00:13:37.918Z,100583.22
2019-05-30T00:16:08.066Z,100582.84
2019-05-30T00:21:32.444Z,100590.11
2019-05-30T00:24:02.519Z,100587.18
2019-05-30T00:26:52.453Z,100591.67
2019-05-30T00:29:23.365Z,100591.67
2019-05-30T00:32:13.215Z,100588.10
2019-05-30T00:34:44.543Z,100589.52
2019-05-30T00:37:36.008Z,100583.62
2019-05-30T00:40:07.658Z,100584.58
2019-05-30T00:43:42.329Z,100582.93
2019-05-30T00:46:04.210Z,100585.33
2019-05-30T00:48:35.579Z,100585.93
2019-05-30T00:51:06.766Z,100586.19
2019-05-30T00:53:37.745Z,100585.25
2019-05-30T00:59:09.853Z,100578.38
2019-05-30T01:01:52.522Z,100576.09
2019-05-30T01:04:44.443Z,100576.09
2019-05-30T01:07:16.271Z,100584.55
2019-05-30T01:10:08.302Z,100566.20
2019-05-30T01:12:59.799Z,100580.51
2019-05-30T01:15:32.043Z,100580.31
2019-05-30T01:21:47.118Z,100578.25
2019-05-30T01:27:41.414Z,100575.70
2019-05-30T01:36:27.308Z,100575.25
2019-05-30T01:39:00.354Z,100574.38
2019-05-30T01:41:31.021Z,100574.38
2019-05-30T01:46:42.550Z,100561.20
2019-05-30T01:49:12.618Z,100568.90
2019-05-30T01:51:43.546Z,100568.43
2019-05-30T01:54:14.250Z,100567.66
2019-05-30T01:56:45.332Z,100561.45
2019-05-30T01:59:34.875Z,100566.35
2019-05-30T02:02:05.581Z,100566.35
2019-05-30T02:04:36.283Z,100555.43
2019-05-30T02:07:07.291Z,100538.27
2019-05-30T02:09:39.391Z,100560.78
2019-05-30T02:12:10.906Z,100562.36
2019-05-30T02:14:42.457Z,100550.66
2019-05-30T02:17:32.434Z,100555.81
2019-05-30T02:20:03.629Z,100555.81
2019-05-30T02:25:26.356Z,100561.67
2019-05-30T02:27:58.090Z,100555.72
2019-05-30T02:33:12.990Z,100559.67
2019-05-30T02:42:28.206Z,100561.11
2019-05-30T02:46:00.832Z,100556.61
2019-05-30T02:48:30.797Z,100564.28
2019-05-30T02:51:34.948Z,100565.33
2019-05-30T03:00:51.661Z,100572.31
2019-05-30T03:07:07.131Z,100580.89
2019-05-30T03:09:39.171Z,100581.73
2019-05-30T03:12:29.149Z,100582.95
2019-05-30T03:15:04.335Z,100588.66
2019-05-30T03:17:36.367Z,100588.63
2019-05-30T03:20:32.585Z,100589.34
2019-05-30T03:23:07.265Z,100591.36
2019-05-30T03:25:41.920Z,100587.30
2019-05-30T03:31:28.776Z,100586.37
2019-05-30T03:34:12.269Z,100587.20
2019-05-30T03:36:57.891Z,100587.95
2019-05-30T03:46:01.319Z,100606.38
2019-05-30T03:48:50.989Z,100611.91
2019-05-30T03:51:23.403Z,100615.25
2019-05-30T03:53:55.233Z,100605.78
2019-05-30T03:56:48.131Z,100618.12
2019-05-30T03:59:49.835Z,100615.27
2019-05-30T04:08:52.256Z,100612.13
2019-05-30T04:12:02.381Z,100612.04
2019-05-30T04:15:14.247Z,100613.25
2019-05-30T04:20:37.048Z,100620.08
2019-05-30T04:23:08.466Z,100623.13
2019-05-30T04:25:42.858Z,100625.14
2019-05-30T04:28:34.668Z,100624.73
2019-05-30T04:31:09.870Z,100628.24
2019-05-30T04:33:41.314Z,100636.13
2019-05-30T04:36:31.172Z,100635.02
2019-05-30T04:39:20.127Z,100627.88
2019-05-30T04:42:13.362Z,100646.36
2019-05-30T04:44:58.003Z,100627.30
2019-05-30T04:47:58.598Z,100627.30
2019-05-30T04:50:28.693Z,100632.51
2019-05-30T04:52:58.607Z,100634.39
2019-05-30T04:56:12.630Z,100633.41
2019-05-30T04:58:43.485Z,100635.12
2019-05-30T05:01:33.394Z,100638.50
2019-05-30T05:04:19.443Z,100640.44
2019-05-30T05:06:36.433Z,100650.41
2019-05-30T05:09:07.935Z,100648.29
2019-05-30T05:11:37.903Z,100647.56
2019-05-30T05:16:59.698Z,100651.77
2019-05-30T05:22:31.236Z,100652.06
2019-05-30T05:25:01.962Z,100650.67
2019-05-30T05:27:31.854Z,100652.69
2019-05-30T05:36:12.815Z,100653.43
2019-05-30T05:38:42.822Z,100660.23
2019-05-30T05:41:13.040Z,100661.22
2019-05-30T05:43:43.224Z,100665.36
2019-05-30T05:49:22.532Z,100662.31
2019-05-30T05:54:54.797Z,100666.55
2019-05-30T05:57:25.456Z,100667.26
2019-05-30T06:00:37.489Z,100667.84
2019-05-30T06:06:13.111Z,100677.39
2019-05-30T06:08:57.147Z,100678.94
2019-05-30T06:14:17.759Z,100680.73
2019-05-30T06:17:07.257Z,100677.97
2019-05-30T06:20:17.391Z,100684.53
2019-05-30T06:22:48.629Z,100676.44
2019-05-30T06:28:11.179Z,100677.03
2019-05-30T06:33:47.203Z,100681.04
2019-05-30T06:36:19.053Z,100688.28
2019-05-30T06:39:08.146Z,100683.31
2019-05-30T06:41:57.206Z,100688.25
2019-05-30T06:44:28.191Z,100689.45
2019-05-30T06:47:17.840Z,100685.55
2019-05-30T06:52:52.037Z,100694.30
2019-05-30T06:58:50.297Z,100690.42
2019-05-30T07:01:21.833Z,100691.79
2019-05-30T07:04:11.600Z,100693.45
2019-05-30T07:06:44.343Z,100699.20
2019-05-30T07:09:17.788Z,100697.14
2019-05-30T07:11:50.281Z,100701.39
2019-05-30T07:17:30.023Z,100700.59
2019-05-30T07:20:31.718Z,100700.76
2019-05-30T07:23:02.136Z,100702.02
2019-05-30T07:25:34.006Z,100689.50
2019-05-30T07:28:04.542Z,100701.19
2019-05-30T07:33:41.514Z,100702.23
2019-05-30T07:36:11.666Z,100702.70
2019-05-30T07:44:06.055Z,100708.42
2019-05-30T07:46:37.330Z,100708.75
2019-05-30T07:49:11.270Z,100707.06
2019-05-30T07:52:00.144Z,100702.19
2019-05-30T07:54:31.016Z,100708.29
2019-05-30T07:57:21.861Z,100706.02
2019-05-30T08:03:05.410Z,100697.46
2019-05-30T08:05:35.725Z,100703.35
2019-05-30T08:13:56.067Z,100700.51
2019-05-30T08:19:50.375Z,100699.97
2019-05-30T08:25:21.817Z,100695.08
2019-05-30T08:33:58.907Z,100697.41
2019-05-30T08:36:29.463Z,100692.95
2019-05-30T08:42:33.267Z,100697.58
2019-05-30T08:45:33.643Z,100691.98
2019-05-30T08:53:22.385Z,100692.98
2019-05-30T08:56:05.213Z,100693.63
2019-05-30T08:58:45.629Z,100687.19
2019-05-30T09:01:17.861Z,100687.19
2019-05-30T09:03:48.003Z,100674.34
2019-05-30T09:08:59.860Z,100685.92
2019-05-30T09:11:49.416Z,100685.47
2019-05-30T09:14:19.429Z,100685.89
2019-05-30T09:20:50.818Z,100688.05
2019-05-30T09:26:30.918Z,100677.27
2019-05-30T09:29:12.830Z,100683.31
2019-05-30T09:31:51.999Z,100683.45
2019-05-30T09:37:04.931Z,100676.91
2019-05-30T09:40:14.552Z,100671.47
2019-05-30T09:45:54.498Z,100684.03
2019-05-30T09:51:13.507Z,100687.55
2019-05-30T09:53:45.984Z,100693.00
2019-05-30T09:56:36.189Z,100693.00
2019-05-30T09:59:26.412Z,100679.27
2019-05-30T10:04:52.622Z,100675.78
2019-05-30T10:07:26.803Z,100679.97
2019-05-30T10:13:14.808Z,100676.44
2019-05-30T10:15:54.282Z,100678.06
2019-05-30T10:26:53.207Z,100669.69
2019-05-30T10:29:43.341Z,100670.81
2019-05-30T10:32:42.233Z,100666.49
2019-05-30T10:35:14.648Z,100666.55
2019-05-30T10:37:47.206Z,100657.66
2019-05-30T10:40:34.959Z,100659.88
2019-05-30T10:43:36.236Z,100660.13
2019-05-30T10:46:25.509Z,100660.94
2019-05-30T10:48:56.890Z,100654.50
2019-05-30T10:51:27.813Z,100664.92
2019-05-30T10:54:00.854Z,100663.58
2019-05-30T10:56:31.672Z,100651.33
2019-05-30T10:59:04.846Z,100651.33
2019-05-30T11:01:34.768Z,100647.09
2019-05-30T11:04:07.367Z,100646.89
2019-05-30T11:07:18.437Z,100647.63
2019-05-30T11:10:29.597Z,100647.88
2019-05-30T11:13:05.905Z,100644.61
2019-05-30T11:15:33.908Z,100641.69
2019-05-30T11:18:27.056Z,100643.73
2019-05-30T11:20:58.884Z,100641.80
2019-05-30T11:23:41.721Z,100639.41
2019-05-30T11:29:36.823Z,100632.47
2019-05-30T11:38:05.159Z,100632.73
2019-05-30T11:40:57.471Z,100631.38
2019-05-30T11:44:11.085Z,100633.27
2019-05-30T11:46:42.788Z,100634.84
2019-05-30T11:49:23.844Z,100635.57
2019-05-30T11:51:57.884Z,100639.06
2019-05-30T11:54:30.710Z,100627.73
2019-05-30T11:57:40.860Z,100630.80
2019-05-30T12:00:25.356Z,100630.44
2019-05-30T12:03:15.361Z,100630.44
2019-05-30T12:05:46.822Z,100635.27
2019-05-30T12:11:09.217Z,100637.28
2019-05-30T12:19:49.821Z,100628.61
2019-05-30T12:22:10.817Z,100640.53
2019-05-30T12:31:38.491Z,100645.03
2019-05-30T12:34:17.781Z,100634.92
2019-05-30T12:37:08.742Z,100636.91
2019-05-30T12:40:14.302Z,100644.10
2019-05-30T12:42:59.192Z,100627.73
2019-05-30T12:48:17.102Z,100635.30
2019-05-30T12:50:49.191Z,100635.30
2019-05-30T12:56:33.850Z,100629.97
2019-05-30T12:59:09.070Z,100635.62
2019-05-30T13:01:47.465Z,100623.14
2019-05-30T13:08:20.922Z,100632.44
2019-05-30T13:10:44.226Z,100626.69
2019-05-30T13:13:36.100Z,100635.74
2019-05-30T13:16:26.808Z,100635.05
2019-05-30T13:19:00.024Z,100626.97
2019-05-30T13:25:13.881Z,100623.91
2019-05-30T13:27:46.528Z,100622.37
2019-05-30T13:30:18.412Z,100628.06
2019-05-30T13:32:49.370Z,100612.40
2019-05-30T13:35:52.318Z,100627.69
2019-05-30T13:38:25.633Z,100627.96
2019-05-30T13:40:48.595Z,100622.16
2019-05-30T13:50:00.718Z,100637.47
2019-05-30T13:52:58.920Z,100640.77
2019-05-30T13:55:33.692Z,100640.92
2019-05-30T13:58:35.993Z,100639.88
2019-05-30T14:01:11.973Z,100635.97
2019-05-30T14:03:41.029Z,100638.02
2019-05-30T14:06:44.328Z,100632.02
2019-05-30T14:09:17.518Z,100625.52
2019-05-30T14:14:41.380Z,100638.84
2019-05-30T14:17:32.474Z,100634.19
2019-05-30T14:20:34.749Z,100638.32
2019-05-30T14:23:26.816Z,100635.60
2019-05-30T14:29:14.794Z,100623.37
2019-05-30T14:31:35.544Z,100627.01
2019-05-30T14:34:29.797Z,100623.90
2019-05-30T14:37:20.710Z,100626.66
2019-05-30T14:42:35.401Z,100625.82
2019-05-30T14:48:33.244Z,100627.20
2019-05-30T14:51:09.418Z,100625.21
2019-05-30T14:53:57.089Z,100634.58
2019-05-30T14:56:29.018Z,100634.58
2019-05-30T14:59:04.857Z,100636.30
2019-05-30T15:01:55.294Z,100628.64
2019-05-30T15:07:36.124Z,100624.24
2019-05-30T15:10:10.627Z,100627.05
2019-05-30T15:12:42.700Z,100621.74
2019-05-30T15:15:46.477Z,100621.16
2019-05-30T15:18:24.472Z,100625.92
2019-05-30T15:27:00.146Z,100621.16
2019-05-30T15:29:50.391Z,100615.94
2019-05-30T15:32:21.253Z,100619.29
2019-05-30T15:35:12.915Z,100628.11
2019-05-30T15:38:32.640Z,100622.03
2019-05-30T15:41:07.119Z,100622.92
2019-05-30T15:43:57.816Z,100618.94
2019-05-30T15:49:32.788Z,100620.72
2019-05-30T15:55:05.468Z,100619.87
2019-05-30T16:01:26.064Z,100617.39
2019-05-30T16:04:16.331Z,100617.12
2019-05-30T16:07:03.757Z,100609.59
2019-05-30T16:09:52.944Z,100607.42
2019-05-30T16:12:29.364Z,100606.31
2019-05-30T16:15:00.242Z,100603.84
2019-05-30T16:17:34.000Z,100605.53
2019-05-30T16:23:44.845Z,100605.50
2019-05-30T16:31:48.432Z,100608.41
2019-05-30T16:34:20.168Z,100592.56
2019-05-30T16:36:55.012Z,100598.73
2019-05-30T16:39:45.533Z,100591.63
2019-05-30T16:44:59.137Z,100586.37
2019-05-30T16:47:33.288Z,100591.59
2019-05-30T16:50:04.141Z,100593.55
2019-05-30T16:52:44.365Z,100594.57
2019-05-30T16:55:34.274Z,100592.30
2019-05-30T16:58:44.631Z,100590.53
2019-05-30T17:01:17.821Z,100593.94
2019-05-30T17:04:27.868Z,100593.17
2019-05-30T17:07:21.384Z,100565.87
2019-05-30T17:09:39.185Z,100595.00
2019-05-30T17:12:18.068Z,100589.26
2019-05-30T17:14:50.060Z,100589.58
2019-05-30T17:17:22.571Z,100588.44
2019-05-30T17:19:54.521Z,100584.58
2019-05-30T17:22:30.201Z,100584.58
2019-05-30T17:24:59.375Z,100579.09
2019-05-30T17:27:50.257Z,100587.77
2019-05-30T17:30:59.897Z,100585.63
2019-05-30T17:33:23.219Z,100585.67
2019-05-30T17:39:26.642Z,100581.17
2019-05-30T17:42:25.518Z,100581.17
2019-05-30T17:48:33.004Z,100592.73
2019-05-30T17:51:23.763Z,100592.88
2019-05-30T17:54:28.057Z,100591.94
2019-05-30T17:57:19.917Z,100600.88
2019-05-30T18:03:42.427Z,100612.23
2019-05-30T18:06:24.905Z,100605.54
2019-05-30T18:08:57.800Z,100603.08
2019-05-30T18:11:47.726Z,100610.00
2019-05-30T18:20:47.754Z,100607.59
2019-05-30T18:23:38.252Z,100606.97
2019-05-30T18:29:18.864Z,100612.77
2019-05-30T18:32:19.889Z,100614.83
2019-05-30T18:35:34.991Z,100615.34
2019-05-30T18:37:54.337Z,100617.45
2019-05-30T18:43:39.715Z,100617.56
2019-05-30T18:46:13.631Z,100617.56
2019-05-30T18:49:06.040Z,100615.25
2019-05-30T18:51:40.685Z,100617.22
2019-05-30T18:54:12.382Z,100617.97
2019-05-30T18:56:44.120Z,100616.20
2019-05-30T18:59:35.102Z,100620.32
2019-05-30T19:05:20.088Z,100629.39
2019-05-30T19:08:11.328Z,100624.09
2019-05-30T19:11:36.348Z,100624.09
2019-05-30T19:14:02.243Z,100629.91
2019-05-30T19:16:34.541Z,100631.48
2019-05-30T19:19:09.207Z,100633.41
2019-05-30T19:22:17.984Z,100633.41
2019-05-30T19:28:30.489Z,100641.48
2019-05-30T19:31:11.245Z,100641.48
2019-05-30T19:33:46.457Z,100643.80
2019-05-30T19:36:18.292Z,100648.72
2019-05-30T19:38:51.395Z,100649.88
2019-05-30T19:44:24.382Z,100652.56
2019-05-30T19:56:37.436Z,100668.75
2019-05-30T19:59:06.767Z,100668.95
2019-05-30T20:01:37.992Z,100668.78
2019-05-30T20:04:11.687Z,100674.52
2019-05-30T20:10:11.874Z,100679.27
2019-05-30T20:12:43.761Z,100676.85
2019-05-30T20:15:35.841Z,100685.81
2019-05-30T20:18:06.855Z,100687.06
2019-05-30T20:20:50.723Z,100700.29
2019-05-30T20:23:30.210Z,100698.65
2019-05-30T20:26:01.405Z,100695.92
2019-05-30T20:35:28.953Z,100696.04
2019-05-30T20:41:32.716Z,100699.59
2019-05-30T20:44:09.854Z,100702.21
2019-05-30T20:52:48.364Z,100703.48
2019-05-30T20:55:19.606Z,100692.00
2019-05-30T21:01:41.765Z,100703.38
2019-05-30T21:04:27.101Z,100702.49
2019-05-30T21:13:55.601Z,100717.34
2019-05-30T21:20:15.079Z,100716.01
2019-05-30T21:22:46.930Z,100717.16
2019-05-30T21:25:37.472Z,100712.11
2019-05-30T21:30:55.431Z,100711.69
2019-05-30T21:36:31.188Z,100711.99
2019-05-30T21:38:53.660Z,100706.78
2019-05-30T21:41:27.569Z,100710.09
2019-05-30T21:44:18.342Z,100727.56
2019-05-30T21:46:49.477Z,100727.56
2019-05-30T21:55:26.972Z,100719.39
2019-05-30T21:58:06.783Z,100722.02
2019-05-30T22:01:16.104Z,100722.12
2019-05-30T22:03:47.243Z,100718.84
2019-05-30T22:06:18.175Z,100722.02
2019-05-30T22:08:49.412Z,100717.28
2019-05-30T22:17:56.271Z,100711.63
2019-05-30T22:20:31.098Z,100705.49
2019-05-30T22:23:15.986Z,100704.86
2019-05-30T22:25:58.742Z,100711.30
2019-05-30T22:28:48.750Z,100711.30
2019-05-30T22:31:38.441Z,100709.41
2019-05-30T22:34:09.510Z,100708.97
2019-05-30T22:37:19.836Z,100711.91
2019-05-30T22:39:51.067Z,100705.95
2019-05-30T22:42:25.371Z,100710.52
2019-05-30T22:47:56.776Z,100711.50
2019-05-30T22:50:29.195Z,100713.33
2019-05-30T22:53:19.447Z,100707.42
2019-05-30T22:56:09.251Z,100711.78
2019-05-30T23:01:58.460Z,100714.28
2019-05-30T23:11:13.722Z,100710.79
2019-05-30T23:13:47.907Z,100715.39
2019-05-30T23:16:39.100Z,100709.81
2019-05-30T23:19:46.527Z,100713.06
2019-05-30T23:22:21.018Z,100712.50
2019-05-30T23:25:02.919Z,100716.88
2019-05-30T23:27:43.951Z,100716.61
2019-05-30T23:30:26.469Z,100719.33
2019-05-30T23:32:59.677Z,100708.98
2019-05-30T23:35:52.110Z,100708.32
2019-05-30T23:38:24.611Z,100713.51
2019-05-30T23:40:55.651Z,100714.63
2019-05-30T23:47:14.249Z,100715.85
2019-05-30T23:50:04.759Z,100714.65
2019-05-30T23:52:44.753Z,100713.15
2019-05-30T23:58:12.087Z,100706.42
